sensor_id;sensor_type;location;lat;lon;timestamp;P1;durP1;ratioP1;P2;durP2;ratioP2
53513;SDS011;39768;54.148;12.174;2023-03-01T00:00:54;4.55;;;1.83;;
53513;SDS011;39768;54.148;12.174;2023-03-01T00:05:03;1.58;;;1.45;;
53513;SDS011;39768;54.148;12.174;2023-03-01T00:09:05;4.00;;;1.40;;
53513;SDS011;39768;54.148;12.174;2023-03-01T00:13:06;2.85;;;1.95;;
53513;SDS011;39768;54.148;12.174;2023-03-01T00:17:08;1.73;;;1.63;;
53513;SDS011;39768;54.148;12.174;2023-03-01T00:21:10;4.00;;;2.00;;
53513;SDS011;39768;54.148;12.174;2023-03-01T00:25:11;1.83;;;1.67;;
53513;SDS011;39768;54.148;12.174;2023-03-01T00:29:13;4.50;;;1.75;;
53513;SDS011;39768;54.148;12.174;2023-03-01T00:33:15;3.33;;;1.63;;
53513;SDS011;39768;54.148;12.174;2023-03-01T00:37:16;2.42;;;2.15;;
53513;SDS011;39768;54.148;12.174;2023-03-01T00:41:19;2.17;;;2.03;;
53513;SDS011;39768;54.148;12.174;2023-03-01T00:45:21;3.70;;;2.13;;
53513;SDS011;39768;54.148;12.174;2023-03-01T00:49:23;3.10;;;1.10;;
53513;SDS011;39768;54.148;12.174;2023-03-01T00:53:30;1.52;;;1.42;;
53513;SDS011;39768;54.148;12.174;2023-03-01T00:57:31;3.40;;;1.65;;
53513;SDS011;39768;54.148;12.174;2023-03-01T01:01:33;3.30;;;2.25;;
53513;SDS011;39768;54.148;12.174;2023-03-01T01:05:35;2.15;;;1.65;;
53513;SDS011;39768;54.148;12.174;2023-03-01T01:09:36;5.68;;;2.25;;
53513;SDS011;39768;54.148;12.174;2023-03-01T01:13:38;2.35;;;1.77;;
53513;SDS011;39768;54.148;12.174;2023-03-01T01:17:41;1.75;;;1.65;;
53513;SDS011;39768;54.148;12.174;2023-03-01T01:21:42;2.45;;;2.25;;
53513;SDS011;39768;54.148;12.174;2023-03-01T01:25:44;3.70;;;1.48;;
53513;SDS011;39768;54.148;12.174;2023-03-01T01:29:46;2.10;;;1.92;;
53513;SDS011;39768;54.148;12.174;2023-03-01T01:33:47;2.10;;;1.48;;
53513;SDS011;39768;54.148;12.174;2023-03-01T01:37:48;2.38;;;2.17;;
53513;SDS011;39768;54.148;12.174;2023-03-01T01:41:50;3.58;;;2.05;;
53513;SDS011;39768;54.148;12.174;2023-03-01T01:45:55;1.13;;;1.05;;
53513;SDS011;39768;54.148;12.174;2023-03-01T01:50:00;2.72;;;1.25;;
53513;SDS011;39768;54.148;12.174;2023-03-01T01:54:03;5.32;;;2.33;;
53513;SDS011;39768;54.148;12.174;2023-03-01T01:58:17;1.40;;;1.30;;
53513;SDS011;39768;54.148;12.174;2023-03-01T02:02:20;1.48;;;1.35;;
53513;SDS011;39768;54.148;12.174;2023-03-01T02:06:29;1.85;;;1.50;;
53513;SDS011;39768;54.148;12.174;2023-03-01T02:10:34;3.67;;;1.23;;
53513;SDS011;39768;54.148;12.174;2023-03-01T02:14:37;2.83;;;1.85;;
53513;SDS011;39768;54.148;12.174;2023-03-01T02:18:39;1.50;;;1.40;;
53513;SDS011;39768;54.148;12.174;2023-03-01T02:22:43;7.28;;;1.40;;
53513;SDS011;39768;54.148;12.174;2023-03-01T02:26:47;6.22;;;1.70;;
53513;SDS011;39768;54.148;12.174;2023-03-01T02:30:56;2.80;;;1.75;;
53513;SDS011;39768;54.148;12.174;2023-03-01T02:35:17;3.00;;;1.80;;
53513;SDS011;39768;54.148;12.174;2023-03-01T02:39:27;11.52;;;1.85;;
53513;SDS011;39768;54.148;12.174;2023-03-01T02:43:33;1.45;;;1.35;;
53513;SDS011;39768;54.148;12.174;2023-03-01T02:47:37;0.93;;;0.90;;
53513;SDS011;39768;54.148;12.174;2023-03-01T02:51:44;1.83;;;0.98;;
53513;SDS011;39768;54.148;12.174;2023-03-01T02:55:53;1.50;;;1.40;;
53513;SDS011;39768;54.148;12.174;2023-03-01T02:59:56;1.52;;;0.95;;
53513;SDS011;39768;54.148;12.174;2023-03-01T03:04:00;1.60;;;1.50;;
53513;SDS011;39768;54.148;12.174;2023-03-01T03:08:02;1.65;;;1.52;;
53513;SDS011;39768;54.148;12.174;2023-03-01T03:12:09;1.77;;;1.10;;
53513;SDS011;39768;54.148;12.174;2023-03-01T03:16:11;2.60;;;1.73;;
53513;SDS011;39768;54.148;12.174;2023-03-01T03:20:13;2.28;;;1.73;;
53513;SDS011;39768;54.148;12.174;2023-03-01T03:24:20;1.33;;;1.20;;
53513;SDS011;39768;54.148;12.174;2023-03-01T03:28:22;2.17;;;1.85;;
53513;SDS011;39768;54.148;12.174;2023-03-01T03:32:23;2.90;;;2.30;;
53513;SDS011;39768;54.148;12.174;2023-03-01T03:36:25;4.72;;;1.95;;
53513;SDS011;39768;54.148;12.174;2023-03-01T03:40:27;1.98;;;1.73;;
53513;SDS011;39768;54.148;12.174;2023-03-01T03:44:34;1.85;;;1.58;;
53513;SDS011;39768;54.148;12.174;2023-03-01T03:48:38;1.27;;;1.23;;
53513;SDS011;39768;54.148;12.174;2023-03-01T03:52:42;3.38;;;1.98;;
53513;SDS011;39768;54.148;12.174;2023-03-01T03:56:44;3.38;;;1.52;;
53513;SDS011;39768;54.148;12.174;2023-03-01T04:00:46;1.50;;;1.40;;
53513;SDS011;39768;54.148;12.174;2023-03-01T04:04:48;2.10;;;1.95;;
53513;SDS011;39768;54.148;12.174;2023-03-01T04:08:53;2.75;;;1.38;;
53513;SDS011;39768;54.148;12.174;2023-03-01T04:12:59;1.45;;;1.35;;
53513;SDS011;39768;54.148;12.174;2023-03-01T04:17:00;2.55;;;2.35;;
53513;SDS011;39768;54.148;12.174;2023-03-01T04:21:02;3.33;;;2.67;;
53513;SDS011;39768;54.148;12.174;2023-03-01T04:25:04;6.40;;;2.33;;
53513;SDS011;39768;54.148;12.174;2023-03-01T04:29:07;2.33;;;1.98;;
53513;SDS011;39768;54.148;12.174;2023-03-01T04:33:09;2.53;;;2.20;;
53513;SDS011;39768;54.148;12.174;2023-03-01T04:37:11;2.25;;;2.05;;
53513;SDS011;39768;54.148;12.174;2023-03-01T04:41:12;2.70;;;2.50;;
53513;SDS011;39768;54.148;12.174;2023-03-01T04:45:16;1.55;;;1.45;;
53513;SDS011;39768;54.148;12.174;2023-03-01T04:49:17;2.85;;;1.63;;
53513;SDS011;39768;54.148;12.174;2023-03-01T04:53:19;2.15;;;1.50;;
53513;SDS011;39768;54.148;12.174;2023-03-01T04:57:20;1.48;;;1.38;;
53513;SDS011;39768;54.148;12.174;2023-03-01T05:01:22;3.92;;;1.83;;
53513;SDS011;39768;54.148;12.174;2023-03-01T05:05:28;2.90;;;1.55;;
53513;SDS011;39768;54.148;12.174;2023-03-01T05:09:32;1.13;;;1.03;;
53513;SDS011;39768;54.148;12.174;2023-03-01T05:13:34;1.40;;;1.30;;
53513;SDS011;39768;54.148;12.174;2023-03-01T05:17:37;1.27;;;1.17;;
53513;SDS011;39768;54.148;12.174;2023-03-01T05:21:38;1.65;;;1.50;;
53513;SDS011;39768;54.148;12.174;2023-03-01T05:26:00;3.17;;;1.55;;
53513;SDS011;39768;54.148;12.174;2023-03-01T05:30:03;2.10;;;1.35;;
53513;SDS011;39768;54.148;12.174;2023-03-01T05:34:14;1.52;;;1.42;;
53513;SDS011;39768;54.148;12.174;2023-03-01T05:38:16;2.90;;;1.60;;
53513;SDS011;39768;54.148;12.174;2023-03-01T05:42:17;5.53;;;2.03;;
53513;SDS011;39768;54.148;12.174;2023-03-01T05:46:19;1.42;;;1.30;;
53513;SDS011;39768;54.148;12.174;2023-03-01T05:50:21;0.73;;;0.73;;
53513;SDS011;39768;54.148;12.174;2023-03-01T05:54:26;2.50;;;1.38;;
53513;SDS011;39768;54.148;12.174;2023-03-01T05:58:27;2.45;;;1.67;;
53513;SDS011;39768;54.148;12.174;2023-03-01T06:02:29;2.58;;;2.22;;
53513;SDS011;39768;54.148;12.174;2023-03-01T06:06:34;2.10;;;2.00;;
53513;SDS011;39768;54.148;12.174;2023-03-01T06:10:38;1.77;;;1.25;;
53513;SDS011;39768;54.148;12.174;2023-03-01T06:14:40;2.45;;;1.90;;
53513;SDS011;39768;54.148;12.174;2023-03-01T06:18:41;1.58;;;1.48;;
53513;SDS011;39768;54.148;12.174;2023-03-01T06:22:43;2.40;;;2.08;;
53513;SDS011;39768;54.148;12.174;2023-03-01T06:26:45;2.47;;;2.35;;
53513;SDS011;39768;54.148;12.174;2023-03-01T06:30:47;3.72;;;2.58;;
53513;SDS011;39768;54.148;12.174;2023-03-01T06:34:49;4.50;;;1.92;;
53513;SDS011;39768;54.148;12.174;2023-03-01T06:38:50;4.60;;;3.75;;
53513;SDS011;39768;54.148;12.174;2023-03-01T06:42:52;13.68;;;2.42;;
53513;SDS011;39768;54.148;12.174;2023-03-01T06:46:53;7.22;;;4.40;;
53513;SDS011;39768;54.148;12.174;2023-03-01T06:50:57;6.82;;;6.13;;
53513;SDS011;39768;54.148;12.174;2023-03-01T06:54:59;9.38;;;5.22;;
53513;SDS011;39768;54.148;12.174;2023-03-01T06:59:01;10.82;;;5.45;;
53513;SDS011;39768;54.148;12.174;2023-03-01T07:03:03;4.40;;;3.88;;
53513;SDS011;39768;54.148;12.174;2023-03-01T07:07:05;2.92;;;2.65;;
53513;SDS011;39768;54.148;12.174;2023-03-01T07:11:06;2.58;;;2.20;;
53513;SDS011;39768;54.148;12.174;2023-03-01T07:15:09;6.68;;;3.10;;
53513;SDS011;39768;54.148;12.174;2023-03-01T07:19:11;2.60;;;1.77;;
53513;SDS011;39768;54.148;12.174;2023-03-01T07:23:13;2.47;;;2.13;;
53513;SDS011;39768;54.148;12.174;2023-03-01T07:27:14;10.65;;;3.35;;
53513;SDS011;39768;54.148;12.174;2023-03-01T07:31:16;2.00;;;1.88;;
53513;SDS011;39768;54.148;12.174;2023-03-01T07:35:17;8.60;;;3.60;;
53513;SDS011;39768;54.148;12.174;2023-03-01T07:39:19;10.82;;;3.35;;
53513;SDS011;39768;54.148;12.174;2023-03-01T07:43:20;5.22;;;3.60;;
53513;SDS011;39768;54.148;12.174;2023-03-01T07:47:22;6.57;;;3.05;;
53513;SDS011;39768;54.148;12.174;2023-03-01T07:51:23;6.38;;;3.20;;
53513;SDS011;39768;54.148;12.174;2023-03-01T07:55:25;9.07;;;3.60;;
53513;SDS011;39768;54.148;12.174;2023-03-01T07:59:26;11.02;;;4.85;;
53513;SDS011;39768;54.148;12.174;2023-03-01T08:03:30;10.70;;;3.55;;
53513;SDS011;39768;54.148;12.174;2023-03-01T08:07:32;8.05;;;2.85;;
53513;SDS011;39768;54.148;12.174;2023-03-01T08:11:34;8.75;;;3.72;;
53513;SDS011;39768;54.148;12.174;2023-03-01T08:15:35;12.70;;;2.63;;
53513;SDS011;39768;54.148;12.174;2023-03-01T08:19:37;2.78;;;2.33;;
53513;SDS011;39768;54.148;12.174;2023-03-01T08:23:38;7.10;;;4.18;;
53513;SDS011;39768;54.148;12.174;2023-03-01T08:27:41;6.57;;;4.47;;
53513;SDS011;39768;54.148;12.174;2023-03-01T08:31:42;4.53;;;4.15;;
53513;SDS011;39768;54.148;12.174;2023-03-01T08:35:44;7.82;;;5.43;;
53513;SDS011;39768;54.148;12.174;2023-03-01T08:39:46;6.78;;;3.65;;
53513;SDS011;39768;54.148;12.174;2023-03-01T08:43:47;6.82;;;3.92;;
53513;SDS011;39768;54.148;12.174;2023-03-01T08:47:51;7.72;;;4.03;;
53513;SDS011;39768;54.148;12.174;2023-03-01T08:51:53;13.18;;;3.72;;
53513;SDS011;39768;54.148;12.174;2023-03-01T08:55:55;9.52;;;4.28;;
53513;SDS011;39768;54.148;12.174;2023-03-01T09:00:01;8.35;;;4.22;;
53513;SDS011;39768;54.148;12.174;2023-03-01T09:04:04;5.43;;;4.38;;
53513;SDS011;39768;54.148;12.174;2023-03-01T09:08:05;13.02;;;4.30;;
53513;SDS011;39768;54.148;12.174;2023-03-01T09:12:10;13.25;;;4.72;;
53513;SDS011;39768;54.148;12.174;2023-03-01T09:16:13;8.63;;;2.97;;
53513;SDS011;39768;54.148;12.174;2023-03-01T09:20:16;7.65;;;3.40;;
53513;SDS011;39768;54.148;12.174;2023-03-01T09:24:18;10.50;;;3.60;;
53513;SDS011;39768;54.148;12.174;2023-03-01T09:28:21;11.40;;;4.35;;
53513;SDS011;39768;54.148;12.174;2023-03-01T09:32:30;2.97;;;2.50;;
53513;SDS011;39768;54.148;12.174;2023-03-01T09:36:32;6.18;;;1.95;;
53513;SDS011;39768;54.148;12.174;2023-03-01T09:40:34;3.47;;;3.20;;
53513;SDS011;39768;54.148;12.174;2023-03-01T09:44:55;5.15;;;3.25;;
53513;SDS011;39768;54.148;12.174;2023-03-01T09:49:14;7.65;;;4.20;;
53513;SDS011;39768;54.148;12.174;2023-03-01T09:53:22;5.80;;;3.97;;
53513;SDS011;39768;54.148;12.174;2023-03-01T09:57:39;5.65;;;3.17;;
53513;SDS011;39768;54.148;12.174;2023-03-01T10:02:01;5.17;;;3.10;;
53513;SDS011;39768;54.148;12.174;2023-03-01T10:06:19;4.10;;;3.08;;
53513;SDS011;39768;54.148;12.174;2023-03-01T10:10:36;5.53;;;2.85;;
53513;SDS011;39768;54.148;12.174;2023-03-01T10:14:49;4.20;;;3.63;;
53513;SDS011;39768;54.148;12.174;2023-03-01T10:18:59;9.15;;;4.32;;
53513;SDS011;39768;54.148;12.174;2023-03-01T10:23:04;3.78;;;2.25;;
53513;SDS011;39768;54.148;12.174;2023-03-01T10:27:14;5.85;;;3.85;;
53513;SDS011;39768;54.148;12.174;2023-03-01T10:31:23;4.95;;;3.97;;
53513;SDS011;39768;54.148;12.174;2023-03-01T10:35:31;7.38;;;3.35;;
53513;SDS011;39768;54.148;12.174;2023-03-01T10:39:35;8.30;;;4.93;;
53513;SDS011;39768;54.148;12.174;2023-03-01T10:47:48;6.15;;;4.82;;
53513;SDS011;39768;54.148;12.174;2023-03-01T10:52:15;11.57;;;4.68;;
53513;SDS011;39768;54.148;12.174;2023-03-01T10:56:20;7.68;;;4.13;;
53513;SDS011;39768;54.148;12.174;2023-03-01T11:00:23;1.65;;;1.55;;
53513;SDS011;39768;54.148;12.174;2023-03-01T11:04:26;7.68;;;1.77;;
53513;SDS011;39768;54.148;12.174;2023-03-01T11:12:46;0.88;;;0.88;;
53513;SDS011;39768;54.148;12.174;2023-03-01T11:16:49;1.25;;;1.25;;
53513;SDS011;39768;54.148;12.174;2023-03-01T11:21:04;3.03;;;2.70;;
53513;SDS011;39768;54.148;12.174;2023-03-01T11:25:10;4.22;;;3.17;;
53513;SDS011;39768;54.148;12.174;2023-03-01T11:29:17;2.40;;;2.20;;
53513;SDS011;39768;54.148;12.174;2023-03-01T11:33:37;4.03;;;2.17;;
53513;SDS011;39768;54.148;12.174;2023-03-01T11:37:54;16.55;;;3.85;;
53513;SDS011;39768;54.148;12.174;2023-03-01T11:42:00;3.22;;;2.55;;
53513;SDS011;39768;54.148;12.174;2023-03-01T11:46:25;2.95;;;2.63;;
53513;SDS011;39768;54.148;12.174;2023-03-01T11:50:41;4.97;;;2.22;;
53513;SDS011;39768;54.148;12.174;2023-03-01T11:54:50;17.42;;;3.92;;
53513;SDS011;39768;54.148;12.174;2023-03-01T12:07:54;11.55;;;3.88;;
53513;SDS011;39768;54.148;12.174;2023-03-01T12:16:22;6.35;;;3.63;;
53513;SDS011;39768;54.148;12.174;2023-03-01T12:20:50;3.63;;;2.45;;
53513;SDS011;39768;54.148;12.174;2023-03-01T12:25:08;9.32;;;3.63;;
53513;SDS011;39768;54.148;12.174;2023-03-01T12:29:52;12.13;;;2.80;;
53513;SDS011;39768;54.148;12.174;2023-03-01T12:38:15;7.85;;;4.15;;
53513;SDS011;39768;54.148;12.174;2023-03-01T12:42:30;5.57;;;4.18;;
53513;SDS011;39768;54.148;12.174;2023-03-01T12:46:48;13.80;;;4.45;;
53513;SDS011;39768;54.148;12.174;2023-03-01T12:50:54;10.90;;;3.80;;
53513;SDS011;39768;54.148;12.174;2023-03-01T12:55:00;6.25;;;3.25;;
53513;SDS011;39768;54.148;12.174;2023-03-01T13:08:01;3.60;;;3.28;;
53513;SDS011;39768;54.148;12.174;2023-03-01T13:16:47;6.80;;;2.97;;
53513;SDS011;39768;54.148;12.174;2023-03-01T13:20:51;2.83;;;1.58;;
53513;SDS011;39768;54.148;12.174;2023-03-01T13:25:01;2.22;;;2.13;;
53513;SDS011;39768;54.148;12.174;2023-03-01T13:29:25;7.20;;;3.47;;
53513;SDS011;39768;54.148;12.174;2023-03-01T13:37:30;4.85;;;3.25;;
53513;SDS011;39768;54.148;12.174;2023-03-01T13:45:44;8.85;;;2.88;;
53513;SDS011;39768;54.148;12.174;2023-03-01T13:54:00;9.02;;;3.65;;
53513;SDS011;39768;54.148;12.174;2023-03-01T13:58:02;15.20;;;3.72;;
53513;SDS011;39768;54.148;12.174;2023-03-01T14:02:15;3.53;;;2.15;;
53513;SDS011;39768;54.148;12.174;2023-03-01T14:06:22;8.50;;;4.70;;
53513;SDS011;39768;54.148;12.174;2023-03-01T14:10:27;7.40;;;2.92;;
53513;SDS011;39768;54.148;12.174;2023-03-01T14:19:00;10.80;;;4.50;;
53513;SDS011;39768;54.148;12.174;2023-03-01T14:23:19;10.07;;;4.05;;
53513;SDS011;39768;54.148;12.174;2023-03-01T14:27:25;5.40;;;2.80;;
53513;SDS011;39768;54.148;12.174;2023-03-01T14:31:40;7.72;;;3.03;;
53513;SDS011;39768;54.148;12.174;2023-03-01T14:36:04;3.13;;;2.88;;
53513;SDS011;39768;54.148;12.174;2023-03-01T14:40:20;3.95;;;2.90;;
53513;SDS011;39768;54.148;12.174;2023-03-01T14:44:29;3.95;;;2.72;;
53513;SDS011;39768;54.148;12.174;2023-03-01T14:48:31;3.20;;;2.88;;
53513;SDS011;39768;54.148;12.174;2023-03-01T14:52:40;4.40;;;2.67;;
53513;SDS011;39768;54.148;12.174;2023-03-01T14:56:46;15.00;;;4.20;;
53513;SDS011;39768;54.148;12.174;2023-03-01T15:00:51;5.82;;;2.05;;
53513;SDS011;39768;54.148;12.174;2023-03-01T15:04:56;5.03;;;2.05;;
53513;SDS011;39768;54.148;12.174;2023-03-01T15:09:01;5.75;;;2.65;;
53513;SDS011;39768;54.148;12.174;2023-03-01T15:13:11;8.05;;;3.22;;
53513;SDS011;39768;54.148;12.174;2023-03-01T15:17:26;1.42;;;1.38;;
53513;SDS011;39768;54.148;12.174;2023-03-01T15:21:36;3.00;;;1.70;;
53513;SDS011;39768;54.148;12.174;2023-03-01T15:25:43;0.80;;;0.80;;
53513;SDS011;39768;54.148;12.174;2023-03-01T15:29:50;4.93;;;2.50;;
53513;SDS011;39768;54.148;12.174;2023-03-01T15:34:08;8.15;;;2.70;;
53513;SDS011;39768;54.148;12.174;2023-03-01T15:42:58;9.65;;;2.22;;
53513;SDS011;39768;54.148;12.174;2023-03-01T15:47:05;5.75;;;2.13;;
53513;SDS011;39768;54.148;12.174;2023-03-01T15:51:28;4.43;;;2.70;;
53513;SDS011;39768;54.148;12.174;2023-03-01T15:55:34;7.32;;;1.50;;
53513;SDS011;39768;54.148;12.174;2023-03-01T15:59:37;4.18;;;2.42;;
53513;SDS011;39768;54.148;12.174;2023-03-01T16:03:38;6.50;;;1.92;;
53513;SDS011;39768;54.148;12.174;2023-03-01T16:07:40;3.75;;;2.40;;
53513;SDS011;39768;54.148;12.174;2023-03-01T16:11:41;3.97;;;2.72;;
53513;SDS011;39768;54.148;12.174;2023-03-01T16:15:44;3.95;;;2.60;;
53513;SDS011;39768;54.148;12.174;2023-03-01T16:19:45;3.83;;;2.28;;
53513;SDS011;39768;54.148;12.174;2023-03-01T16:23:47;4.78;;;2.50;;
53513;SDS011;39768;54.148;12.174;2023-03-01T16:27:49;1.20;;;1.15;;
53513;SDS011;39768;54.148;12.174;2023-03-01T16:31:52;7.30;;;3.88;;
53513;SDS011;39768;54.148;12.174;2023-03-01T16:35:53;7.25;;;3.03;;
53513;SDS011;39768;54.148;12.174;2023-03-01T16:39:55;4.18;;;2.00;;
53513;SDS011;39768;54.148;12.174;2023-03-01T16:43:57;3.13;;;2.78;;
53513;SDS011;39768;54.148;12.174;2023-03-01T16:47:58;2.42;;;2.25;;
53513;SDS011;39768;54.148;12.174;2023-03-01T16:52:00;3.63;;;2.15;;
53513;SDS011;39768;54.148;12.174;2023-03-01T16:56:02;2.95;;;1.98;;
53513;SDS011;39768;54.148;12.174;2023-03-01T17:00:06;6.80;;;3.17;;
53513;SDS011;39768;54.148;12.174;2023-03-01T17:04:11;3.88;;;3.05;;
53513;SDS011;39768;54.148;12.174;2023-03-01T17:08:14;3.03;;;2.60;;
53513;SDS011;39768;54.148;12.174;2023-03-01T17:12:15;6.95;;;2.60;;
53513;SDS011;39768;54.148;12.174;2023-03-01T17:16:17;3.22;;;2.05;;
53513;SDS011;39768;54.148;12.174;2023-03-01T17:20:20;2.42;;;2.22;;
53513;SDS011;39768;54.148;12.174;2023-03-01T17:24:22;1.15;;;1.15;;
53513;SDS011;39768;54.148;12.174;2023-03-01T17:28:24;2.15;;;1.98;;
53513;SDS011;39768;54.148;12.174;2023-03-01T17:32:28;3.70;;;2.15;;
53513;SDS011;39768;54.148;12.174;2023-03-01T17:36:30;2.63;;;2.17;;
53513;SDS011;39768;54.148;12.174;2023-03-01T17:40:33;4.80;;;2.25;;
53513;SDS011;39768;54.148;12.174;2023-03-01T17:44:36;5.10;;;1.55;;
53513;SDS011;39768;54.148;12.174;2023-03-01T17:48:37;2.53;;;1.90;;
53513;SDS011;39768;54.148;12.174;2023-03-01T17:52:40;2.80;;;2.05;;
53513;SDS011;39768;54.148;12.174;2023-03-01T17:56:41;3.88;;;2.78;;
53513;SDS011;39768;54.148;12.174;2023-03-01T18:00:43;1.10;;;1.10;;
53513;SDS011;39768;54.148;12.174;2023-03-01T18:04:45;4.15;;;1.55;;
53513;SDS011;39768;54.148;12.174;2023-03-01T18:08:53;2.05;;;1.45;;
53513;SDS011;39768;54.148;12.174;2023-03-01T18:12:55;6.00;;;1.17;;
53513;SDS011;39768;54.148;12.174;2023-03-01T18:16:57;3.38;;;1.50;;
53513;SDS011;39768;54.148;12.174;2023-03-01T18:20:59;1.52;;;1.17;;
53513;SDS011;39768;54.148;12.174;2023-03-01T18:25:01;4.20;;;1.38;;
53513;SDS011;39768;54.148;12.174;2023-03-01T18:29:03;5.50;;;2.17;;
53513;SDS011;39768;54.148;12.174;2023-03-01T18:33:05;3.58;;;3.25;;
53513;SDS011;39768;54.148;12.174;2023-03-01T18:37:06;6.00;;;1.80;;
53513;SDS011;39768;54.148;12.174;2023-03-01T18:41:10;3.30;;;1.85;;
53513;SDS011;39768;54.148;12.174;2023-03-01T18:45:12;3.70;;;1.95;;
53513;SDS011;39768;54.148;12.174;2023-03-01T18:49:14;7.93;;;2.92;;
53513;SDS011;39768;54.148;12.174;2023-03-01T18:53:16;2.58;;;2.42;;
53513;SDS011;39768;54.148;12.174;2023-03-01T18:57:17;6.03;;;3.58;;
53513;SDS011;39768;54.148;12.174;2023-03-01T19:01:20;3.30;;;2.78;;
53513;SDS011;39768;54.148;12.174;2023-03-01T19:05:24;9.38;;;4.68;;
53513;SDS011;39768;54.148;12.174;2023-03-01T19:09:28;7.70;;;2.30;;
53513;SDS011;39768;54.148;12.174;2023-03-01T19:13:29;9.98;;;3.85;;
53513;SDS011;39768;54.148;12.174;2023-03-01T19:17:32;4.25;;;2.80;;
53513;SDS011;39768;54.148;12.174;2023-03-01T19:21:34;7.18;;;2.72;;
53513;SDS011;39768;54.148;12.174;2023-03-01T19:25:36;10.40;;;3.90;;
53513;SDS011;39768;54.148;12.174;2023-03-01T19:29:38;4.53;;;3.63;;
53513;SDS011;39768;54.148;12.174;2023-03-01T19:33:39;8.75;;;3.50;;
53513;SDS011;39768;54.148;12.174;2023-03-01T19:37:41;4.35;;;2.40;;
53513;SDS011;39768;54.148;12.174;2023-03-01T19:41:43;3.75;;;3.45;;
53513;SDS011;39768;54.148;12.174;2023-03-01T19:45:48;7.07;;;3.90;;
53513;SDS011;39768;54.148;12.174;2023-03-01T19:49:51;9.65;;;3.70;;
53513;SDS011;39768;54.148;12.174;2023-03-01T19:53:53;9.52;;;3.33;;
53513;SDS011;39768;54.148;12.174;2023-03-01T19:57:56;11.00;;;3.85;;
53513;SDS011;39768;54.148;12.174;2023-03-01T20:01:57;7.38;;;2.53;;
53513;SDS011;39768;54.148;12.174;2023-03-01T20:05:59;5.97;;;3.17;;
53513;SDS011;39768;54.148;12.174;2023-03-01T20:10:03;4.75;;;4.05;;
53513;SDS011;39768;54.148;12.174;2023-03-01T20:14:05;8.23;;;3.33;;
53513;SDS011;39768;54.148;12.174;2023-03-01T20:18:09;1.40;;;1.30;;
53513;SDS011;39768;54.148;12.174;2023-03-01T20:22:11;11.15;;;3.83;;
53513;SDS011;39768;54.148;12.174;2023-03-01T20:26:15;2.65;;;1.70;;
53513;SDS011;39768;54.148;12.174;2023-03-01T20:30:19;11.27;;;3.45;;
53513;SDS011;39768;54.148;12.174;2023-03-01T20:34:21;9.88;;;2.90;;
53513;SDS011;39768;54.148;12.174;2023-03-01T20:38:22;4.40;;;2.65;;
53513;SDS011;39768;54.148;12.174;2023-03-01T20:42:24;2.95;;;2.03;;
53513;SDS011;39768;54.148;12.174;2023-03-01T20:46:25;4.75;;;1.98;;
53513;SDS011;39768;54.148;12.174;2023-03-01T20:50:27;9.48;;;1.98;;
53513;SDS011;39768;54.148;12.174;2023-03-01T20:54:28;4.82;;;3.95;;
53513;SDS011;39768;54.148;12.174;2023-03-01T20:58:30;7.75;;;2.65;;
53513;SDS011;39768;54.148;12.174;2023-03-01T21:02:33;8.05;;;4.22;;
53513;SDS011;39768;54.148;12.174;2023-03-01T21:06:35;8.35;;;2.35;;
53513;SDS011;39768;54.148;12.174;2023-03-01T21:10:38;3.58;;;2.33;;
53513;SDS011;39768;54.148;12.174;2023-03-01T21:14:39;2.72;;;2.42;;
53513;SDS011;39768;54.148;12.174;2023-03-01T21:18:44;4.53;;;3.47;;
53513;SDS011;39768;54.148;12.174;2023-03-01T21:22:45;12.07;;;4.07;;
53513;SDS011;39768;54.148;12.174;2023-03-01T21:26:47;4.90;;;2.25;;
53513;SDS011;39768;54.148;12.174;2023-03-01T21:30:48;10.48;;;2.05;;
53513;SDS011;39768;54.148;12.174;2023-03-01T21:34:50;9.68;;;3.13;;
53513;SDS011;39768;54.148;12.174;2023-03-01T21:38:52;7.40;;;3.53;;
53513;SDS011;39768;54.148;12.174;2023-03-01T21:42:54;5.93;;;3.25;;
53513;SDS011;39768;54.148;12.174;2023-03-01T21:46:56;3.80;;;2.38;;
53513;SDS011;39768;54.148;12.174;2023-03-01T21:50:59;14.18;;;5.63;;
53513;SDS011;39768;54.148;12.174;2023-03-01T21:55:01;7.40;;;5.03;;
53513;SDS011;39768;54.148;12.174;2023-03-01T21:59:05;7.35;;;3.42;;
53513;SDS011;39768;54.148;12.174;2023-03-01T22:03:08;6.88;;;5.30;;
53513;SDS011;39768;54.148;12.174;2023-03-01T22:07:10;8.45;;;4.20;;
53513;SDS011;39768;54.148;12.174;2023-03-01T22:11:11;8.23;;;3.72;;
53513;SDS011;39768;54.148;12.174;2023-03-01T22:15:13;13.40;;;4.78;;
53513;SDS011;39768;54.148;12.174;2023-03-01T22:19:15;9.02;;;3.70;;
53513;SDS011;39768;54.148;12.174;2023-03-01T22:23:16;8.48;;;4.05;;
53513;SDS011;39768;54.148;12.174;2023-03-01T22:27:18;11.27;;;3.58;;
53513;SDS011;39768;54.148;12.174;2023-03-01T22:31:19;2.67;;;2.47;;
53513;SDS011;39768;54.148;12.174;2023-03-01T22:35:21;11.32;;;3.22;;
53513;SDS011;39768;54.148;12.174;2023-03-01T22:39:23;6.97;;;2.45;;
53513;SDS011;39768;54.148;12.174;2023-03-01T22:43:25;6.60;;;2.53;;
53513;SDS011;39768;54.148;12.174;2023-03-01T22:47:28;8.57;;;3.78;;
53513;SDS011;39768;54.148;12.174;2023-03-01T22:51:31;3.42;;;2.50;;
53513;SDS011;39768;54.148;12.174;2023-03-01T22:55:34;3.08;;;1.42;;
53513;SDS011;39768;54.148;12.174;2023-03-01T22:59:36;5.82;;;1.38;;
53513;SDS011;39768;54.148;12.174;2023-03-01T23:03:37;2.42;;;1.58;;
53513;SDS011;39768;54.148;12.174;2023-03-01T23:07:39;5.43;;;2.33;;
53513;SDS011;39768;54.148;12.174;2023-03-01T23:11:41;1.80;;;1.60;;
53513;SDS011;39768;54.148;12.174;2023-03-01T23:15:43;5.65;;;2.03;;
53513;SDS011;39768;54.148;12.174;2023-03-01T23:19:45;3.05;;;2.33;;
53513;SDS011;39768;54.148;12.174;2023-03-01T23:23:46;7.75;;;2.60;;
53513;SDS011;39768;54.148;12.174;2023-03-01T23:27:48;5.82;;;1.77;;
53513;SDS011;39768;54.148;12.174;2023-03-01T23:31:49;12.00;;;2.47;;
53513;SDS011;39768;54.148;12.174;2023-03-01T23:35:51;1.42;;;0.95;;
53513;SDS011;39768;54.148;12.174;2023-03-01T23:39:52;5.68;;;2.53;;
53513;SDS011;39768;54.148;12.174;2023-03-01T23:43:55;3.33;;;2.20;;
53513;SDS011;39768;54.148;12.174;2023-03-01T23:47:57;3.03;;;1.83;;
53513;SDS011;39768;54.148;12.174;2023-03-01T23:51:59;3.60;;;1.80;;
53513;SDS011;39768;54.148;12.174;2023-03-01T23:56:01;4.68;;;1.85;;
